createdAt,value
2023-01-28T00:04:34.851Z,44.1
2023-01-28T00:09:57.148Z,44.1
2023-01-28T00:15:19.625Z,44.1
2023-01-28T00:20:42.315Z,44
2023-01-28T00:26:05.547Z,44
2023-01-28T00:31:28.354Z,43.9
2023-01-28T00:36:51.245Z,43.9
2023-01-28T00:42:13.996Z,43.8
2023-01-28T00:47:37.026Z,43.8
2023-01-28T00:52:43.888Z,43.8
2023-01-28T00:58:06.732Z,43.7
2023-01-28T01:03:31.622Z,43.7
2023-01-28T01:08:54.341Z,43.6
2023-01-28T01:14:17.351Z,43.6
2023-01-28T01:19:40.745Z,43.5
2023-01-28T01:25:02.191Z,43.5
2023-01-28T01:30:24.907Z,43.4
2023-01-28T01:35:48.360Z,43.4
2023-01-28T01:40:55.943Z,43.4
2023-01-28T01:46:19.337Z,43.3
2023-01-28T01:51:26.506Z,43.3
2023-01-28T01:56:48.959Z,43.2
2023-01-28T02:02:11.684Z,43.2
2023-01-28T02:07:19.508Z,43.1
2023-01-28T02:12:41.956Z,43.1
2023-01-28T02:17:57.883Z,43
2023-01-28T02:23:04.210Z,43
2023-01-28T02:28:12.136Z,42.9
2023-01-28T02:33:19.479Z,42.9
2023-01-28T02:38:11.623Z,42.9
2023-01-28T02:43:18.553Z,42.8
2023-01-28T02:47:55.132Z,42.8
2023-01-28T02:52:45.933Z,42.8
2023-01-28T02:57:52.991Z,42.7
2023-01-28T03:03:00.868Z,42.6
2023-01-28T03:08:08.360Z,42.6
2023-01-28T03:13:31.257Z,42.6
2023-01-28T03:18:53.262Z,42.6
2023-01-28T03:24:15.423Z,42.5
2023-01-28T03:29:38.661Z,42.4
2023-01-28T03:34:46.861Z,42.4
2023-01-28T03:39:53.488Z,42.3
2023-01-28T03:45:00.327Z,42.3
2023-01-28T03:50:24.112Z,42.3
2023-01-28T03:55:48.498Z,42.2
2023-01-28T04:01:11.318Z,42.2
2023-01-28T04:06:33.613Z,42.1
2023-01-28T04:11:39.977Z,42.1
2023-01-28T04:16:16.192Z,42.1
2023-01-28T04:21:07.171Z,42
2023-01-28T04:25:58.798Z,41.9
2023-01-28T04:31:21.614Z,41.9
2023-01-28T04:36:44.499Z,41.9
2023-01-28T04:42:06.488Z,41.8
2023-01-28T04:47:29.397Z,41.8
2023-01-28T04:52:36.389Z,41.8
2023-01-28T04:57:58.925Z,41.7
2023-01-28T05:03:21.598Z,41.6
2023-01-28T05:08:43.875Z,41.6
2023-01-28T05:14:06.116Z,41.6
2023-01-28T05:19:29.828Z,41.4
2023-01-28T05:24:52.055Z,41.3
2023-01-28T05:30:14.566Z,41.3
2023-01-28T05:35:36.959Z,41.2
2023-01-28T05:40:58.762Z,41.2
2023-01-28T05:46:21.615Z,41.1
2023-01-28T05:51:46.006Z,41.1
2023-01-28T05:56:52.942Z,40.8
2023-01-28T06:02:16.051Z,40.6
2023-01-28T06:07:39.316Z,40.6
2023-01-28T06:12:46.370Z,40.5
2023-01-28T06:17:53.560Z,40.5
2023-01-28T06:23:15.984Z,40.4
2023-01-28T06:28:22.680Z,40.4
2023-01-28T06:33:29.960Z,40.3
2023-01-28T06:38:21.228Z,40.3
2023-01-28T06:43:28.593Z,40.3
2023-01-28T06:48:53.621Z,40.2
2023-01-28T06:54:19.158Z,40.1
2023-01-28T06:59:41.335Z,39.7
2023-01-28T07:05:04.722Z,39.6
2023-01-28T07:10:27.669Z,39.6
2023-01-28T07:15:50.103Z,39.6
2023-01-28T07:21:13.130Z,39.5
2023-01-28T07:26:38.580Z,39.4
2023-01-28T07:32:01.716Z,39.4
2023-01-28T07:37:24.340Z,39.4
2023-01-28T07:42:46.541Z,39.3
2023-01-28T07:47:53.214Z,39.3
2023-01-28T07:53:15.976Z,39.2
2023-01-28T07:58:41.208Z,39.2
2023-01-28T08:04:03.425Z,39.1
2023-01-28T08:09:26.596Z,39.1
2023-01-28T08:14:49.385Z,39
2023-01-28T08:20:11.614Z,38.9
2023-01-28T08:25:34.610Z,38.8
2023-01-28T08:30:57.615Z,38.8
2023-01-28T08:36:20.650Z,38.8
2023-01-28T08:41:42.318Z,38.7
2023-01-28T08:47:07.787Z,38.6
2023-01-28T08:52:30.696Z,38.6
2023-01-28T08:57:58.181Z,38.6
2023-01-28T09:03:39.222Z,38.5
2023-01-28T09:09:01.961Z,38.5
2023-01-28T09:14:24.339Z,38.4
2023-01-28T09:19:48.925Z,38.4
2023-01-28T09:25:12.158Z,38.3
2023-01-28T09:30:19.411Z,38.3
2023-01-28T09:35:44.188Z,38.3
2023-01-28T09:41:06.987Z,38.2
2023-01-28T09:46:29.500Z,38.2
2023-01-28T09:51:52.600Z,38.1
2023-01-28T09:57:16.294Z,38.1
2023-01-28T10:02:40.230Z,38
2023-01-28T10:08:03.283Z,37.9
2023-01-28T10:13:26.050Z,37.9
2023-01-28T10:19:05.654Z,37.9
2023-01-28T10:24:28.541Z,37.8
2023-01-28T10:29:50.632Z,37.8
2023-01-28T10:35:13.996Z,37.7
2023-01-28T10:40:37.053Z,37.6
2023-01-28T10:46:13.183Z,37.6
2023-01-28T10:51:35.958Z,37.6
2023-01-28T10:56:58.931Z,37.5
2023-01-28T11:02:06.716Z,37.4
2023-01-28T11:07:29.362Z,37.4
2023-01-28T11:13:07.209Z,37.3
2023-01-28T11:18:14.079Z,37.3
2023-01-28T11:23:37.142Z,37.3
2023-01-28T11:28:59.436Z,37.2
2023-01-28T11:34:22.767Z,37.2
2023-01-28T11:39:46.820Z,37.1
2023-01-28T11:45:11.360Z,37.1
2023-01-28T11:50:38.645Z,37.1
2023-01-28T11:56:31.032Z,37
2023-01-28T12:01:54.005Z,36.9
2023-01-28T12:07:16.936Z,36.9
2023-01-28T12:12:39.698Z,36.9
2023-01-28T12:17:46.781Z,36.8
2023-01-28T12:23:09.349Z,36.8
2023-01-28T12:28:32.635Z,36.8
2023-01-28T12:33:56.598Z,36.7
2023-01-28T12:39:19.241Z,36.6
2023-01-28T12:44:41.909Z,36.6
2023-01-28T12:50:04.960Z,36.6
2023-01-28T12:55:27.565Z,36.5
2023-01-28T13:00:50.825Z,36.5
2023-01-28T13:06:14.090Z,36.4
2023-01-28T13:11:36.691Z,36.4
2023-01-28T13:17:10.325Z,36.4
2023-01-28T13:22:39.348Z,36.3
2023-01-28T13:28:04.786Z,36.3
2023-01-28T13:33:27.861Z,36.3
2023-01-28T13:38:50.045Z,36.2
2023-01-28T13:44:12.074Z,36.2
2023-01-28T13:49:35.492Z,36.1
2023-01-28T13:54:57.945Z,36.1
2023-01-28T14:00:20.993Z,36.1
2023-01-28T14:05:44.706Z,36
2023-01-28T14:11:08.480Z,35.9
2023-01-28T14:16:31.622Z,35.9
2023-01-28T14:21:54.861Z,35.9
2023-01-28T14:27:17.927Z,35.8
2023-01-28T14:32:43.884Z,35.8
2023-01-28T14:38:06.706Z,35.8
2023-01-28T14:43:14.266Z,35.8
2023-01-28T14:48:38.522Z,35.7
2023-01-28T14:54:01.472Z,35.6
2023-01-28T14:59:26.486Z,35.6
2023-01-28T15:05:04.252Z,35.6
2023-01-28T15:10:27.062Z,35.5
2023-01-28T15:15:50.159Z,35.5
2023-01-28T15:21:13.146Z,35.4
2023-01-28T15:26:38.142Z,35.4
2023-01-28T15:32:03.062Z,35.4
2023-01-28T15:37:25.554Z,35.3
2023-01-28T15:42:48.653Z,35.3
2023-01-28T15:48:11.716Z,35.3
2023-01-28T15:53:34.579Z,35.2
2023-01-28T15:59:01.111Z,35.2
2023-01-28T16:04:24.373Z,35.1
2023-01-28T16:09:34.920Z,35.1
2023-01-28T16:14:57.202Z,35.1
2023-01-28T16:20:06.401Z,35.1
2023-01-28T16:25:30.637Z,35
2023-01-28T16:30:55.333Z,34.9
2023-01-28T16:36:42.299Z,34.9
2023-01-28T16:41:26.322Z,34.8
2023-01-28T16:46:24.739Z,34.4
2023-01-28T16:51:51.551Z,35
2023-01-28T16:57:34.684Z,35.7
2023-01-28T17:02:58.584Z,36.1
2023-01-28T17:08:21.808Z,36.6
2023-01-28T17:13:46.089Z,37.4
2023-01-28T17:19:10.222Z,37.6
2023-01-28T17:24:18.923Z,38.1
2023-01-28T17:29:27.680Z,38.1
2023-01-28T17:34:53.687Z,38.3
2023-01-28T17:40:17.182Z,38.3
2023-01-28T17:45:42.780Z,38.7
2023-01-28T17:51:10.839Z,39.1
2023-01-28T17:56:40.323Z,39.6
2023-01-28T18:02:13.461Z,40.3
2023-01-28T18:07:42.360Z,40.5
2023-01-28T18:13:09.889Z,40.6
2023-01-28T18:18:36.789Z,41.1
2023-01-28T18:24:14.310Z,41.6
2023-01-28T18:29:49.992Z,42
2023-01-28T18:35:05.761Z,42.5
2023-01-28T18:40:18.961Z,43.1
2023-01-28T18:45:39.596Z,43.6
2023-01-28T18:51:28.683Z,44
2023-01-28T18:57:10.648Z,44.8
2023-01-28T19:02:50.043Z,45.3
2023-01-28T19:08:11.011Z,45.4
2023-01-28T19:13:33.970Z,45.6
2023-01-28T19:19:10.051Z,45.7
2023-01-28T19:24:58.572Z,45.9
2023-01-28T19:30:37.201Z,45.9
2023-01-28T19:36:12.864Z,45.9
2023-01-28T19:41:49.447Z,45.9
2023-01-28T19:47:09.581Z,45.9
2023-01-28T19:52:27.517Z,45.8
2023-01-28T19:57:45.430Z,45.8
2023-01-28T20:03:07.986Z,45.8
2023-01-28T20:08:55.895Z,45.9
2023-01-28T20:14:35.518Z,47.4
2023-01-28T20:20:15.531Z,48.9
2023-01-28T20:25:52.082Z,50.5
2023-01-28T20:31:30.089Z,52.2
2023-01-28T20:37:22.328Z,53.9
2023-01-28T20:42:57.353Z,55.6
2023-01-28T20:48:18.343Z,57.2
2023-01-28T20:53:49.868Z,58.9
2023-01-28T20:59:22.408Z,59.5
2023-01-28T21:04:43.977Z,59.6
2023-01-28T21:10:02.408Z,59.5
2023-01-28T21:15:12.742Z,59.4
2023-01-28T21:20:05.841Z,59.4
2023-01-28T21:25:13.714Z,59.4
2023-01-28T21:30:21.812Z,59.3
2023-01-28T21:35:44.987Z,59.3
2023-01-28T21:41:14.011Z,59.3
2023-01-28T21:46:09.640Z,59.2
2023-01-28T21:51:17.272Z,59.1
2023-01-28T21:56:28.821Z,59
2023-01-28T22:01:36.324Z,58.9
2023-01-28T22:06:43.508Z,58.9
2023-01-28T22:11:35.404Z,58.8
2023-01-28T22:16:42.799Z,58.8
2023-01-28T22:21:37.248Z,58.7
2023-01-28T22:26:44.614Z,58.7
2023-01-28T22:31:52.958Z,58.6
2023-01-28T22:41:51.408Z,58.5
2023-01-28T22:46:58.763Z,58.4
2023-01-28T22:52:05.471Z,58.4
2023-01-28T22:57:11.764Z,58.4
2023-01-28T23:02:50.571Z,58.3
2023-01-28T23:07:41.596Z,58.3
2023-01-28T23:13:03.711Z,58.3
2023-01-28T23:18:26.750Z,58.2
2023-01-28T23:23:33.499Z,58.1
2023-01-28T23:28:26.390Z,58.1
2023-01-28T23:33:33.827Z,58.1
2023-01-28T23:38:40.573Z,58
2023-01-28T23:44:03.065Z,57.9
2023-01-28T23:49:31.846Z,57.9
2023-01-28T23:54:53.875Z,57.9
